Nearby METAR Reports

 

KPDX - Portland, Oregon, USA
Distance from station: NE 9mi, 14km
Updated: Sat, 23-Oct-2021 9:53am PDT
Rain, Mist, Overcast
Rain, Mist, Overcast
 Wind from ESE
Wind: ESE 9 mph , 15 km/h
Temperature: 52°F , 11°C
Dew Point: 48°F , 9°C
Humidity: 88%
Barometer: 29.72 inHg , 1006.4 hPa
Summary: Rain, Mist
Clouds: Overcast
Visibility: 3 miles , 5 km
Cloud details: Few Clouds 4000 ft
Overcast 5500 ft
2021/10/23 16:53 KPDX 231653Z 12008KT 3SM RA BR FEW040 OVC055 11/09 A2972 RMK AO2 RAB10 SLP065 P0018 T01110089
KTMK - Tillamook, Oregon, USA
Distance from station: N 9mi, 14km
Updated: Sat, 23-Oct-2021 9:55am PDT
Overcast
Overcast
 Wind from S
Wind: S 12 mph , 19 km/h, Gust: 16 mph , 26 km/h
Temperature: 54°F , 12°C
Dew Point: 50°F , 10°C
Humidity: 88%
Barometer: 29.68 inHg , 1005.1 hPa
Clouds: Overcast
Visibility: 10 miles , 16 km
Cloud details: Mostly cloudy 2200 ft
Mostly cloudy 2800 ft
Overcast 4700 ft
2021/10/23 16:55 KTMK 231655Z AUTO 17010G14KT 10SM BKN022 BKN028 OVC047 12/10 A2968 RMK AO2 P0001
 
KSLE - Salem, Oregon, USA
Distance from station: NNW 14mi, 23km
Updated: Sat, 23-Oct-2021 9:56am PDT
Light rain, Mist, Overcast
Light rain, Mist, Overcast
 Wind from S
Wind: S 5 mph , 7 km/h
Temperature: 54°F , 12°C
Dew Point: 48°F , 9°C
Humidity: 82%
Barometer: 29.71 inHg , 1006.1 hPa
Summary: Light rain, Mist
Clouds: Overcast
Visibility: 5 miles , 8 km
Cloud details: Few Clouds 4600 ft
Overcast 6000 ft
2021/10/23 16:56 KSLE 231656Z 17004KT 5SM -RA BR FEW046 OVC060 12/09 A2971 RMK AO2 RAB02 SLP060 P0003 T01170094
KEUG - Eugene, Oregon, USA
Distance from station: ENE 12mi, 19km
Updated: Sat, 23-Oct-2021 9:54am PDT
Light rain, Overcast
Light rain, Overcast
 Wind from WSW
Wind: WSW 8 mph , 13 km/h
Temperature: 54°F , 12°C
Dew Point: 46°F , 8°C
Humidity: 77%
Barometer: 29.73 inHg , 1006.8 hPa
Summary: Light rain
Clouds: Overcast
Visibility: 10 miles , 16 km
Cloud details: Few Clouds 4700 ft
Partly cloudy 7500 ft
Mostly cloudy 9500 ft
Overcast 14000 ft
2021/10/23 16:54 KEUG 231654Z 24007KT 10SM -RA FEW047 SCT075 BKN095 OVC140 12/08 A2973 RMK AO2 RAB04E12B43 SLP069 P0000 T01170083
 
KONP - Newport, Oregon, USA
Distance from station: NNW 31mi, 50km
Updated: Sat, 23-Oct-2021 9:55am PDT
Heavy drizzle, Overcast
Heavy drizzle, Overcast
 Wind from SW
Wind: SW 5 mph , 7 km/h
Temperature: 52°F , 11°C
Dew Point: 50°F , 10°C
Humidity: 94%
Barometer: 29.74 inHg , 1007.1 hPa
Summary: Heavy Drizzle
Clouds: Overcast
Visibility: 2 1/2 miles , 4 km
Cloud details: Partly cloudy 900 ft
Overcast 1500 ft
2021/10/23 16:55 KONP 231655Z AUTO 23004KT 2 1/2SM +DZ SCT009 OVC015 11/10 A2974 RMK AO2 P0002
K6S2 - Florence, Oregon, USA
Distance from station: NW 21mi, 34km
Updated: Sat, 23-Oct-2021 9:55am PDT
Light drizzle, Overcast
Light drizzle, Overcast
 Wind from calm
Wind: Calm
Temperature: 52°F , 11°C
Dew Point: 52°F , 11°C
Humidity: 100%
Barometer: 29.73 inHg , 1006.8 hPa
Summary: Light Drizzle
Clouds: Overcast
Visibility: 5 miles , 8 km
Cloud details: Mostly cloudy 2400 ft
Overcast 3100 ft
2021/10/23 16:55 K6S2 231655Z AUTO 00000KT 5SM -DZ BKN024 OVC031 11/11 A2973 RMK AO2 P0001 T01100110
 
KDLS - The Dalles, Oregon, USA
Distance from station: NW 30mi, 49km
Updated: Sat, 23-Oct-2021 9:53am PDT
Overcast
Overcast
 Wind from calm
Wind: Calm
Temperature: 52°F , 11°C
Dew Point: 46°F , 8°C
Humidity: 82%
Barometer: 29.76 inHg , 1007.8 hPa
Clouds: Overcast
Visibility: 10 miles , 16 km
Cloud details: Overcast 6000 ft
2021/10/23 16:53 KDLS 231653Z AUTO 00000KT 10SM OVC060 11/08 A2976 RMK AO2 SLP077 T01110078
KRDM - Redmond, Oregon, USA
Distance from station: ESE 27mi, 43km
Updated: Sat, 23-Oct-2021 9:56am PDT
Clear
Clear
 Wind from S
Wind: S 10 mph , 17 km/h
Temperature: 48°F , 9°C
Wind Chill: 44°F , 7°C
Dew Point: 37°F , 3°C
Humidity: 66%
Barometer: 29.76 inHg , 1007.8 hPa
Clouds: Clear
Visibility: 10 miles , 16 km
2021/10/23 16:56 KRDM 231656Z 18009KT 10SM CLR 09/03 A2976 RMK AO2 SLP075 T00890028
 
KPDT - Pendleton, Oregon, USA
Distance from station: SSE 27mi, 44km
Updated: Sat, 23-Oct-2021 9:53am PDT
Clear
Clear
 Wind from S
Wind: S 7 mph , 11 km/h
Temperature: 54°F , 12°C
Dew Point: 45°F , 7°C
Humidity: 72%
Barometer: 29.76 inHg , 1007.8 hPa
Clouds: Clear
Visibility: 10 miles , 16 km
2021/10/23 16:53 KPDT 231653Z 17006KT 10SM CLR 12/07 A2976 RMK AO2 SLP072 T01170067
KGCD - John Day, Oregon, USA
Distance from station: WNW 31mi, 50km
Updated: Sat, 23-Oct-2021 9:55am PDT
Overcast
Overcast
 Wind from SE
Wind: SE 8 mph , 13 km/h
Temperature: 46°F , 8°C
Wind Chill: 42°F , 6°C
Dew Point: 41°F , 5°C
Humidity: 82%
Barometer: 29.81 inHg , 1009.5 hPa
Clouds: Overcast
Visibility: 10 miles , 16 km
Cloud details: Partly cloudy 2200 ft
Mostly cloudy 4000 ft
Overcast 5000 ft
2021/10/23 16:55 KGCD 231655Z AUTO 13007KT 10SM SCT022 BKN040 OVC050 08/05 A2981 RMK AO2 T00770052
 
KAST - Astoria, Oregon, USA
Distance from station: N 28mi, 44km
Updated: Sat, 23-Oct-2021 9:55am PDT
Light rain, Mist, Overcast
Light rain, Mist, Overcast
 Wind from S
Wind: S 5 mph , 7 km/h
Temperature: 54°F , 12°C
Dew Point: 50°F , 10°C
Humidity: 88%
Barometer: 29.64 inHg , 1003.7 hPa
Summary: Light rain, Mist
Clouds: Overcast
Visibility: 4 miles , 6 km
Cloud details: Overcast 2300 ft
2021/10/23 16:55 KAST 231655Z AUTO 17004KT 4SM -RA BR OVC023 12/10 A2964 RMK AO2 RAE06B50 SLP035 P0000 T01170100
KSEA - Seattle, Washington, USA
Distance from station: NNE 31mi, 51km
Updated: Sat, 23-Oct-2021 9:53am PDT
Overcast
Overcast
 Wind from SE
Wind: SE 8 mph , 13 km/h
Temperature: 50°F , 10°C
Wind Chill: 47°F , 8°C
Dew Point: 45°F , 7°C
Humidity: 82%
Barometer: 29.67 inHg , 1004.7 hPa
Clouds: Overcast
Visibility: 10 miles , 16 km
Cloud details: Overcast 4000 ft
2021/10/23 16:53 KSEA 231653Z 13007KT 10SM OVC040 10/07 A2967 RMK AO2 RAB35E47 SLP054 P0000 T01000072